Time;durP1;ratioP1;P1;durP2;ratioP2;P2;SDS_P1;SDS_P2;PMS_P1;PMS_P2;Temp;Humidity;BMP_temperature;BMP_pressure;BME280_temperature;BME280_humidity;BME280_pressure;Samples;Min_cycle;Max_cycle;Signal;HPM_P1;HPM_P2
2022/04/16 00:01:15;;;;;;;;;;;18.80;58.80;;;;;;5035512;28;850;-67
2022/04/16 00:03:41;;;;;;;;;;;18.80;58.90;;;;;;5035811;28;867;-68
2022/04/16 00:06:06;;;;;;;;;;;18.80;58.90;;;;;;5034098;28;902;-68
2022/04/16 00:08:32;;;;;;;;;;;18.80;58.90;;;;;;5035544;28;791;-68
2022/04/16 00:10:57;;;;;;;;;;;18.80;58.90;;;;;;5035482;28;1273;-68
2022/04/16 00:13:23;;;;;;;;;;;18.80;58.90;;;;;;5035284;28;1969;-68
2022/04/16 00:15:54;;;;;;;;;;;18.70;58.90;;;;;;5033868;28;1014;-68
2022/04/16 00:18:20;;;;;;;;;;;18.70;58.90;;;;;;5035340;28;977;-68
2022/04/16 00:20:47;;;;;;;;;;;18.70;58.90;;;;;;5034024;28;1174;-68
2022/04/16 00:23:13;;;;;;;;;;;18.80;59.00;;;;;;5034161;28;1045;-67
2022/04/16 00:25:39;;;;;;;;;;;18.70;58.90;;;;;;5034952;28;1130;-68
2022/04/16 00:28:04;;;;;;;;;;;18.70;58.90;;;;;;5035065;28;1175;-68
2022/04/16 00:30:35;;;;;;;;;;;18.70;58.90;;;;;;5035006;28;1174;-67
2022/04/16 00:33:02;;;;;;;;;;;18.70;58.90;;;;;;5033598;28;2181;-69
2022/04/16 00:35:29;;;;;;;;;;;18.70;58.90;;;;;;5033858;28;1109;-68
2022/04/16 00:37:54;;;;;;;;;;;18.70;58.90;;;;;;5034747;28;1246;-68
2022/04/16 00:40:20;;;;;;;;;;;18.70;58.90;;;;;;5034752;28;1664;-68
2022/04/16 00:42:46;;;;;;;;;;;18.70;58.90;;;;;;5034824;28;816;-69
2022/04/16 00:45:11;;;;;;;;;;;18.80;58.90;;;;;;5034753;28;1082;-68
2022/04/16 00:47:36;;;;;;;;;;;18.80;58.90;;;;;;5025007;28;1114;-68
2022/04/16 00:50:03;;;;;;;;;;;18.80;58.90;;;;;;5016955;28;1204;-68
2022/04/16 00:52:28;;;;;;;;;;;18.80;58.90;;;;;;5034682;28;1902;-67
2022/04/16 00:54:54;;;;;;;;;;;18.80;58.90;;;;;;5034662;28;783;-66
2022/04/16 00:57:19;;;;;;;;;;;18.80;58.90;;;;;;5016544;28;840;-67
2022/04/16 00:59:45;;;;;;;;;;;18.80;58.90;;;;;;5034582;28;1290;-67
2022/04/16 01:02:10;;;;;;;;;;;18.80;58.90;;;;;;5034390;28;827;-67
2022/04/16 01:04:36;;;;;;;;;;;18.80;58.90;;;;;;5034491;28;840;-66
2022/04/16 01:07:01;;;;;;;;;;;18.80;58.90;;;;;;5034181;28;1033;-67
2022/04/16 01:09:27;;;;;;;;;;;18.80;58.90;;;;;;5034316;28;1210;-66
2022/04/16 01:11:52;;;;;;;;;;;18.80;58.90;;;;;;5034013;28;1902;-67
2022/04/16 01:14:19;;;;;;;;;;;18.80;58.90;;;;;;5034346;28;785;-66
2022/04/16 01:16:45;;;;;;;;;;;18.80;59.50;;;;;;5033740;28;1079;-67
2022/04/16 01:19:10;;;;;;;;;;;18.80;58.90;;;;;;5034192;28;1383;-67
2022/04/16 01:21:36;;;;;;;;;;;18.80;58.90;;;;;;5034052;28;902;-67
2022/04/16 01:24:01;;;;;;;;;;;18.80;59.40;;;;;;5034138;28;1053;-67
2022/04/16 01:26:27;;;;;;;;;;;18.80;58.80;;;;;;5015783;28;1123;-68
2022/04/16 01:28:52;;;;;;;;;;;18.80;58.80;;;;;;5033808;28;1207;-67
2022/04/16 01:31:17;;;;;;;;;;;18.80;58.80;;;;;;5033693;28;1229;-70
2022/04/16 01:33:43;;;;;;;;;;;18.80;58.80;;;;;;5033919;28;1902;-70
2022/04/16 01:36:08;;;;;;;;;;;18.80;58.80;;;;;;5033672;28;1182;-70
2022/04/16 01:38:34;;;;;;;;;;;18.80;58.80;;;;;;5033919;28;879;-69
2022/04/16 01:40:59;;;;;;;;;;;18.80;58.80;;;;;;5032897;28;1185;-68
2022/04/16 01:43:24;;;;;;;;;;;18.80;58.80;;;;;;5033891;28;1017;-68
2022/04/16 01:45:50;;;;;;;;;;;18.80;58.70;;;;;;5033410;28;1072;-68
2022/04/16 01:48:19;;;;;;;;;;;18.80;58.70;;;;;;5015872;28;822;-68
2022/04/16 01:50:46;;;;;;;;;;;18.80;58.60;;;;;;5015883;28;1194;-69
2022/04/16 01:53:11;;;;;;;;;;;18.90;58.60;;;;;;5033627;28;1898;-68
2022/04/16 01:55:36;;;;;;;;;;;18.90;58.60;;;;;;5033744;28;1014;-69
2022/04/16 01:58:05;;;;;;;;;;;18.90;58.50;;;;;;5033837;28;792;-68
2022/04/16 02:00:30;;;;;;;;;;;18.90;58.40;;;;;;5033783;28;1283;-69
2022/04/16 02:02:57;;;;;;;;;;;18.90;58.40;;;;;;5033356;28;879;-68
2022/04/16 02:05:22;;;;;;;;;;;19.00;58.40;;;;;;5033380;28;863;-69
2022/04/16 02:07:49;;;;;;;;;;;19.00;58.40;;;;;;5015266;28;990;-69
2022/04/16 02:10:16;;;;;;;;;;;19.00;58.30;;;;;;5033329;28;1276;-69
2022/04/16 02:12:42;;;;;;;;;;;19.00;58.30;;;;;;5033199;28;1910;-71
2022/04/16 02:15:07;;;;;;;;;;;19.00;58.20;;;;;;5033198;28;796;-70
2022/04/16 02:17:33;;;;;;;;;;;19.00;58.20;;;;;;5044145;28;1211;-69
2022/04/16 02:19:58;;;;;;;;;;;19.00;58.20;;;;;;5053075;28;1322;-67
2022/04/16 02:22:24;;;;;;;;;;;19.00;58.10;;;;;;5053163;28;950;-68
2022/04/16 02:24:49;;;;;;;;;;;19.10;58.20;;;;;;5052756;28;1204;-67
2022/04/16 02:27:15;;;;;;;;;;;19.10;58.10;;;;;;5015234;28;834;-69
2022/04/16 02:29:40;;;;;;;;;;;19.10;58.00;;;;;;5026771;28;1901;-68
2022/04/16 02:32:06;;;;;;;;;;;19.10;58.00;;;;;;5032733;28;1958;-69
2022/04/16 02:34:31;;;;;;;;;;;19.10;58.00;;;;;;5033444;28;760;-69
2022/04/16 02:36:58;;;;;;;;;;;19.10;58.00;;;;;;5032589;28;1108;-69
2022/04/16 02:39:23;;;;;;;;;;;19.10;58.00;;;;;;5032801;28;1214;-69
2022/04/16 02:41:49;;;;;;;;;;;19.10;57.90;;;;;;5015257;28;842;-68
2022/04/16 02:47:18;;;;;;;;;;;19.10;57.90;;;;;;4971693;28;1183;-68
2022/04/16 02:49:43;;;;;;;;;;;19.10;57.90;;;;;;4971636;28;1307;-68
2022/04/16 02:52:09;;;;;;;;;;;19.10;57.90;;;;;;5002734;28;1890;-69
2022/04/16 02:54:35;;;;;;;;;;;19.10;57.90;;;;;;5019361;28;843;-68
2022/04/16 02:57:00;;;;;;;;;;;19.10;57.80;;;;;;5036728;28;844;-69
2022/04/16 02:59:27;;;;;;;;;;;19.10;57.80;;;;;;5018963;28;1212;-69
2022/04/16 03:01:53;;;;;;;;;;;19.10;57.80;;;;;;5036673;28;862;-68
2022/04/16 03:04:18;;;;;;;;;;;19.10;57.80;;;;;;5036667;28;779;-69
2022/04/16 03:06:44;;;;;;;;;;;19.20;57.80;;;;;;5036370;28;1002;-69
2022/04/16 03:09:10;;;;;;;;;;;19.20;57.80;;;;;;5036730;28;1241;-68
2022/04/16 03:11:35;;;;;;;;;;;19.20;57.80;;;;;;5036553;28;1898;-69
2022/04/16 03:17:31;;;;;;;;;;;19.20;57.80;;;;;;5036532;28;800;-68
2022/04/16 03:19:31;;;;;;;;;;;19.10;57.70;;;;;;5036529;28;1291;-69
2022/04/16 03:21:56;;;;;;;;;;;19.20;57.80;;;;;;5036378;28;796;-68
2022/04/16 03:24:22;;;;;;;;;;;19.20;57.80;;;;;;5036443;28;804;-68
2022/04/16 03:26:47;;;;;;;;;;;19.20;57.80;;;;;;5036140;28;1171;-69
2022/04/16 03:29:12;;;;;;;;;;;19.20;57.80;;;;;;5036118;28;1283;-68
2022/04/16 03:31:38;;;;;;;;;;;19.20;57.80;;;;;;5036134;28;1959;-69
2022/04/16 03:34:03;;;;;;;;;;;19.20;57.70;;;;;;5036389;28;891;-69
2022/04/16 03:36:30;;;;;;;;;;;19.20;57.70;;;;;;5035793;28;1187;-68
2022/04/16 03:38:55;;;;;;;;;;;19.20;57.70;;;;;;5036125;28;1199;-68
2022/04/16 03:41:20;;;;;;;;;;;19.20;57.70;;;;;;5036089;28;914;-69
2022/04/16 03:43:46;;;;;;;;;;;19.20;57.70;;;;;;5036313;28;891;-68
2022/04/16 03:46:12;;;;;;;;;;;19.20;57.70;;;;;;5035691;28;1041;-68
2022/04/16 03:48:38;;;;;;;;;;;19.20;57.70;;;;;;5035922;28;928;-68
2022/04/16 03:51:03;;;;;;;;;;;19.20;57.70;;;;;;5035805;28;1213;-68
2022/04/16 03:53:29;;;;;;;;;;;19.20;57.80;;;;;;5035875;28;1952;-69
2022/04/16 04:01:22;;;;;;;;;;;19.20;57.70;;;;;;5035714;28;739;-69
2022/04/16 04:03:48;;;;;;;;;;;19.20;57.70;;;;;;5035058;28;897;-68
2022/04/16 04:06:14;;;;;;;;;;;19.20;57.70;;;;;;5035409;28;957;-68
2022/04/16 04:08:42;;;;;;;;;;;19.20;57.70;;;;;;5035758;28;847;-68
2022/04/16 04:11:08;;;;;;;;;;;19.20;57.70;;;;;;5035467;28;922;-68
2022/04/16 04:13:33;;;;;;;;;;;19.20;57.70;;;;;;5035405;28;1922;-68
2022/04/16 04:15:59;;;;;;;;;;;19.20;57.70;;;;;;5035155;28;1002;-68
2022/04/16 04:18:24;;;;;;;;;;;19.20;57.70;;;;;;5035509;28;824;-68
2022/04/16 04:20:50;;;;;;;;;;;19.20;57.70;;;;;;5035213;28;1295;-69
2022/04/16 04:23:16;;;;;;;;;;;19.20;57.70;;;;;;5034158;28;1053;-67
2022/04/16 04:25:42;;;;;;;;;;;19.20;57.70;;;;;;5004150;28;2121;-67
2022/04/16 04:28:07;;;;;;;;;;;19.20;57.70;;;;;;5034888;28;1023;-68
2022/04/16 04:30:33;;;;;;;;;;;19.20;57.70;;;;;;5041714;28;1302;-68
2022/04/16 04:32:59;;;;;;;;;;;19.20;58.30;;;;;;5045088;28;1906;-67
2022/04/16 04:35:24;;;;;;;;;;;19.20;57.70;;;;;;5026984;28;1221;-66
2022/04/16 04:37:50;;;;;;;;;;;19.20;57.70;;;;;;5044067;28;1259;-68
2022/04/16 04:40:15;;;;;;;;;;;19.20;57.70;;;;;;5040423;28;1256;-68
2022/04/16 04:42:40;;;;;;;;;;;19.20;58.20;;;;;;5044622;28;1283;-67
2022/04/16 04:45:07;;;;;;;;;;;19.20;57.70;;;;;;5044832;28;1216;-67
2022/04/16 04:47:32;;;;;;;;;;;19.20;57.70;;;;;;5043012;28;1291;-68
2022/04/16 04:49:57;;;;;;;;;;;19.20;57.70;;;;;;5044939;28;1300;-68
2022/04/16 04:52:26;;;;;;;;;;;19.20;57.70;;;;;;5044749;28;1965;-67
2022/04/16 04:54:54;;;;;;;;;;;19.20;57.70;;;;;;5043026;28;1270;-65
2022/04/16 04:57:20;;;;;;;;;;;19.20;57.70;;;;;;5044248;28;1276;-67
2022/04/16 04:59:45;;;;;;;;;;;19.20;57.70;;;;;;5044766;28;1365;-64
2022/04/16 05:02:10;;;;;;;;;;;19.20;57.70;;;;;;5042861;28;1224;-66
2022/04/16 05:04:36;;;;;;;;;;;19.20;58.30;;;;;;5045105;28;1232;-65
2022/04/16 05:07:03;;;;;;;;;;;19.20;57.70;;;;;;5043419;28;1228;-65
2022/04/16 05:09:28;;;;;;;;;;;19.20;57.70;;;;;;5043309;28;1358;-69
2022/04/16 05:11:54;;;;;;;;;;;19.20;57.70;;;;;;5021575;28;1906;-69
2022/04/16 05:14:20;;;;;;;;;;;19.20;57.60;;;;;;5033424;28;907;-69
2022/04/16 05:16:46;;;;;;;;;;;19.20;57.70;;;;;;5033879;28;871;-69
2022/04/16 05:19:12;;;;;;;;;;;19.20;58.20;;;;;;5034203;28;1599;-69
2022/04/16 05:21:37;;;;;;;;;;;19.20;57.60;;;;;;5034108;28;907;-69
2022/04/16 05:24:03;;;;;;;;;;;19.20;57.60;;;;;;5033990;28;892;-70
2022/04/16 05:26:28;;;;;;;;;;;19.20;57.60;;;;;;5033803;28;1135;-69
2022/04/16 05:28:56;;;;;;;;;;;19.20;57.60;;;;;;5033869;28;1323;-69
2022/04/16 05:31:24;;;;;;;;;;;19.20;57.60;;;;;;5034014;28;826;-69
2022/04/16 05:36:33;;;;;;;;;;;19.20;57.70;;;;;;5033425;28;1123;-69
2022/04/16 05:38:59;;;;;;;;;;;19.20;57.60;;;;;;5033796;28;1304;-69
2022/04/16 05:41:24;;;;;;;;;;;19.20;57.70;;;;;;5033756;28;880;-70
2022/04/16 05:43:52;;;;;;;;;;;19.20;57.70;;;;;;5033826;28;1009;-69
2022/04/16 05:46:17;;;;;;;;;;;19.20;57.70;;;;;;5033476;28;874;-68
2022/04/16 05:48:43;;;;;;;;;;;19.20;57.70;;;;;;5033547;28;1260;-69
2022/04/16 05:51:08;;;;;;;;;;;19.20;57.70;;;;;;5036783;28;1274;-68
2022/04/16 05:53:34;;;;;;;;;;;19.20;57.70;;;;;;5043468;28;1903;-68
2022/04/16 05:55:59;;;;;;;;;;;19.20;57.70;;;;;;5043265;28;1228;-69
2022/04/16 05:58:24;;;;;;;;;;;19.20;57.60;;;;;;5039091;28;1243;-68
2022/04/16 06:00:50;;;;;;;;;;;19.20;57.60;;;;;;5033275;28;1212;-68
2022/04/16 06:03:15;;;;;;;;;;;19.20;57.60;;;;;;5033390;28;1101;-68
2022/04/16 06:05:41;;;;;;;;;;;19.20;57.60;;;;;;5015272;28;999;-68
2022/04/16 06:08:06;;;;;;;;;;;19.20;57.60;;;;;;5033358;28;802;-68
2022/04/16 06:10:32;;;;;;;;;;;19.20;57.60;;;;;;5033209;28;1186;-68
2022/04/16 06:12:57;;;;;;;;;;;19.20;57.60;;;;;;5033246;28;1906;-68
2022/04/16 06:15:23;;;;;;;;;;;19.20;57.60;;;;;;5033192;28;726;-68
2022/04/16 06:17:48;;;;;;;;;;;19.20;57.60;;;;;;5032979;28;905;-68
2022/04/16 06:20:14;;;;;;;;;;;19.20;57.70;;;;;;5032858;28;1187;-68
2022/04/16 06:22:39;;;;;;;;;;;19.20;57.70;;;;;;5033155;28;919;-68
2022/04/16 06:25:06;;;;;;;;;;;19.20;57.70;;;;;;5015495;28;1146;-68
2022/04/16 06:27:31;;;;;;;;;;;19.20;57.70;;;;;;5032571;28;1162;-68
2022/04/16 06:29:56;;;;;;;;;;;19.20;57.70;;;;;;5032893;28;1212;-68
2022/04/16 06:32:22;;;;;;;;;;;19.20;57.70;;;;;;5032872;28;1957;-69
2022/04/16 06:34:47;;;;;;;;;;;19.20;57.70;;;;;;5027981;28;1916;-71
2022/04/16 06:37:13;;;;;;;;;;;19.20;57.70;;;;;;5029947;28;1177;-69
2022/04/16 06:39:38;;;;;;;;;;;19.20;57.70;;;;;;5031872;28;1288;-68
2022/04/16 06:42:04;;;;;;;;;;;19.20;57.70;;;;;;5032005;28;1146;-65
2022/04/16 06:44:31;;;;;;;;;;;19.20;57.70;;;;;;5038924;28;1193;-67
2022/04/16 06:46:57;;;;;;;;;;;19.20;57.70;;;;;;5022630;28;1216;-70
2022/04/16 06:49:24;;;;;;;;;;;19.20;57.70;;;;;;5041820;28;1272;-69
2022/04/16 06:51:50;;;;;;;;;;;19.20;57.70;;;;;;5041627;28;1898;-68
2022/04/16 06:54:15;;;;;;;;;;;19.20;57.80;;;;;;5049776;28;1172;-67
2022/04/16 06:56:41;;;;;;;;;;;19.20;57.80;;;;;;5052431;28;757;-68
2022/04/16 06:59:07;;;;;;;;;;;19.20;57.80;;;;;;5042802;28;1979;-67
2022/04/16 07:01:33;;;;;;;;;;;19.20;57.70;;;;;;5026761;28;2401;-69
2022/04/16 07:03:58;;;;;;;;;;;19.30;57.70;;;;;;5014793;28;1475;-67
2022/04/16 07:06:24;;;;;;;;;;;19.30;57.60;;;;;;5032441;28;1024;-67
2022/04/16 07:08:49;;;;;;;;;;;19.40;57.50;;;;;;5032654;28;1291;-69
2022/04/16 07:11:15;;;;;;;;;;;19.40;57.30;;;;;;5032468;28;1160;-68
2022/04/16 07:13:40;;;;;;;;;;;19.50;57.20;;;;;;5032678;28;1906;-67
2022/04/16 07:16:05;;;;;;;;;;;19.60;57.10;;;;;;5032259;28;846;-69
2022/04/16 07:18:31;;;;;;;;;;;19.70;56.90;;;;;;5032608;28;796;-68
2022/04/16 07:20:56;;;;;;;;;;;19.70;56.70;;;;;;5032508;28;1183;-68
2022/04/16 07:23:22;;;;;;;;;;;19.80;56.70;;;;;;5032516;28;823;-67
2022/04/16 07:25:47;;;;;;;;;;;19.90;56.50;;;;;;5032241;28;1139;-68
2022/04/16 07:28:21;;;;;;;;;;;19.90;56.30;;;;;;5032511;28;1179;-67
2022/04/16 07:30:49;;;;;;;;;;;19.90;56.30;;;;;;5032640;28;1337;-68
2022/04/16 07:33:15;;;;;;;;;;;20.00;56.20;;;;;;5032346;28;1911;-68
2022/04/16 07:35:40;;;;;;;;;;;20.00;56.10;;;;;;5032436;28;797;-67
2022/04/16 07:38:06;;;;;;;;;;;20.00;56.00;;;;;;5033853;28;1167;-68
2022/04/16 07:40:31;;;;;;;;;;;20.00;55.90;;;;;;5035997;28;1196;-68
2022/04/16 07:42:57;;;;;;;;;;;20.10;55.90;;;;;;5036092;28;935;-68
2022/04/16 07:45:23;;;;;;;;;;;20.10;55.90;;;;;;5035949;28;1009;-69
2022/04/16 07:47:48;;;;;;;;;;;20.10;55.90;;;;;;5035497;28;819;-67
2022/04/16 07:50:14;;;;;;;;;;;20.10;55.90;;;;;;5035827;28;1216;-67
2022/04/16 07:52:40;;;;;;;;;;;20.10;55.80;;;;;;5018346;28;1965;-68
2022/04/16 07:55:06;;;;;;;;;;;20.10;55.90;;;;;;5035806;28;675;-67
2022/04/16 07:57:31;;;;;;;;;;;20.10;55.90;;;;;;5035501;28;1069;-68
2022/04/16 07:59:56;;;;;;;;;;;20.10;55.90;;;;;;5018309;28;1199;-68
2022/04/16 08:02:22;;;;;;;;;;;20.10;55.90;;;;;;5035454;28;875;-68
2022/04/16 08:04:47;;;;;;;;;;;20.10;55.90;;;;;;5035784;28;848;-68
2022/04/16 08:07:13;;;;;;;;;;;20.10;56.00;;;;;;5035263;28;879;-67
2022/04/16 08:09:38;;;;;;;;;;;20.10;56.00;;;;;;5035530;28;1219;-69
2022/04/16 08:12:04;;;;;;;;;;;20.10;56.00;;;;;;5035393;28;1902;-68
2022/04/16 08:14:29;;;;;;;;;;;20.00;55.90;;;;;;5035548;28;784;-68
2022/04/16 08:16:56;;;;;;;;;;;20.10;56.10;;;;;;5035003;28;768;-68
2022/04/16 08:19:22;;;;;;;;;;;20.10;56.10;;;;;;5035361;28;1209;-67
2022/04/16 08:21:48;;;;;;;;;;;20.10;56.10;;;;;;5045864;28;1487;-67
2022/04/16 08:24:22;;;;;;;;;;;20.00;56.10;;;;;;5037962;28;1188;-67
2022/04/16 08:26:47;;;;;;;;;;;20.00;56.10;;;;;;5018414;28;1160;-67
2022/04/16 08:29:13;;;;;;;;;;;20.00;56.20;;;;;;5034960;28;1337;-67
2022/04/16 08:31:38;;;;;;;;;;;20.00;56.20;;;;;;5035027;28;684;-68
2022/04/16 08:34:04;;;;;;;;;;;20.00;56.20;;;;;;5035068;28;1954;-68
2022/04/16 08:36:29;;;;;;;;;;;20.00;56.30;;;;;;5034699;28;1096;-68
2022/04/16 08:38:55;;;;;;;;;;;20.00;56.30;;;;;;5035012;28;1274;-67
2022/04/16 08:41:20;;;;;;;;;;;20.00;56.30;;;;;;5034896;28;875;-68
2022/04/16 08:43:45;;;;;;;;;;;19.90;56.30;;;;;;5017149;28;787;-67
2022/04/16 08:46:11;;;;;;;;;;;20.00;56.40;;;;;;5034450;28;789;-68
2022/04/16 08:48:36;;;;;;;;;;;19.90;56.40;;;;;;5016998;28;1182;-67
2022/04/16 08:51:02;;;;;;;;;;;19.90;56.40;;;;;;5034611;28;1291;-68
2022/04/16 08:53:27;;;;;;;;;;;19.90;57.00;;;;;;5034640;28;2071;-68
2022/04/16 08:55:53;;;;;;;;;;;19.90;56.40;;;;;;5034158;28;856;-67
2022/04/16 08:58:18;;;;;;;;;;;19.90;56.50;;;;;;5034719;28;713;-68
2022/04/16 09:00:44;;;;;;;;;;;19.90;56.50;;;;;;5016330;28;1191;-68
2022/04/16 09:03:09;;;;;;;;;;;19.90;56.50;;;;;;5034372;28;888;-67
2022/04/16 09:05:35;;;;;;;;;;;19.80;56.50;;;;;;5034593;28;774;-68
2022/04/16 09:08:00;;;;;;;;;;;19.90;56.60;;;;;;5016707;28;784;-67
2022/04/16 09:10:27;;;;;;;;;;;19.90;56.60;;;;;;5016718;28;1298;-69
2022/04/16 09:12:52;;;;;;;;;;;19.80;56.60;;;;;;5034292;28;1906;-69
2022/04/16 09:15:18;;;;;;;;;;;19.80;56.60;;;;;;5034796;28;827;-67
2022/04/16 09:17:43;;;;;;;;;;;19.80;56.60;;;;;;5016349;28;942;-67
2022/04/16 09:20:09;;;;;;;;;;;19.80;56.70;;;;;;5034239;28;1292;-68
2022/04/16 09:22:35;;;;;;;;;;;19.80;56.70;;;;;;5034051;28;874;-68
2022/04/16 09:25:02;;;;;;;;;;;19.80;56.70;;;;;;5016546;28;1119;-68
2022/04/16 09:27:28;;;;;;;;;;;19.80;56.80;;;;;;5033670;28;1112;-67
2022/04/16 09:29:54;;;;;;;;;;;19.80;56.80;;;;;;5016578;28;1222;-68
2022/04/16 09:32:25;;;;;;;;;;;19.80;56.80;;;;;;5033954;28;1969;-68
2022/04/16 09:34:53;;;;;;;;;;;19.80;56.80;;;;;;5034008;28;718;-67
2022/04/16 09:37:21;;;;;;;;;;;19.80;56.80;;;;;;5033886;28;1040;-67
2022/04/16 09:39:47;;;;;;;;;;;19.70;56.80;;;;;;5032648;28;1188;-67
2022/04/16 09:42:12;;;;;;;;;;;19.70;56.80;;;;;;5034124;28;847;-68
2022/04/16 09:44:38;;;;;;;;;;;19.70;56.90;;;;;;5032501;28;1478;-68
2022/04/16 09:47:03;;;;;;;;;;;19.70;56.90;;;;;;5033461;28;780;-68
2022/04/16 09:49:29;;;;;;;;;;;19.70;56.90;;;;;;5033798;28;1232;-68
2022/04/16 09:51:55;;;;;;;;;;;19.70;57.00;;;;;;5032334;28;1902;-68
2022/04/16 09:54:23;;;;;;;;;;;19.70;57.00;;;;;;5015916;28;1238;-67
2022/04/16 09:56:48;;;;;;;;;;;19.70;57.00;;;;;;5033076;28;954;-68
2022/04/16 09:59:14;;;;;;;;;;;19.70;57.00;;;;;;5032176;28;1335;-68
2022/04/16 10:01:46;;;;;;;;;;;19.70;57.00;;;;;;5032887;28;823;-67
2022/04/16 10:04:12;;;;;;;;;;;19.70;57.00;;;;;;5033498;28;863;-68
2022/04/16 10:06:37;;;;;;;;;;;19.70;57.00;;;;;;5033038;28;918;-68
2022/04/16 10:09:13;;;;;;;;;;;19.80;57.00;;;;;;5033386;28;1221;-68
2022/04/16 10:12:59;;;;;;;;;;;19.80;56.90;;;;;;5033209;28;879;-69
2022/04/16 10:14:39;;;;;;;;;;;19.80;56.80;;;;;;5032178;28;1217;-68
2022/04/16 10:17:11;;;;;;;;;;;19.80;56.80;;;;;;5031772;28;1018;-67
2022/04/16 10:19:40;;;;;;;;;;;19.90;56.70;;;;;;5048366;28;1798;-67
2022/04/16 10:22:05;;;;;;;;;;;19.90;56.60;;;;;;5031886;28;781;-68
2022/04/16 10:24:31;;;;;;;;;;;19.90;56.50;;;;;;5033161;28;793;-67
2022/04/16 10:27:03;;;;;;;;;;;19.90;56.50;;;;;;5027333;28;1927;-66
2022/04/16 10:29:33;;;;;;;;;;;19.90;56.40;;;;;;5032784;28;1262;-68
2022/04/16 10:31:59;;;;;;;;;;;20.00;56.40;;;;;;5033187;28;1898;-68
2022/04/16 10:34:30;;;;;;;;;;;20.00;56.40;;;;;;5032587;28;1198;-69
2022/04/16 10:36:55;;;;;;;;;;;20.00;56.30;;;;;;5032576;28;1189;-69
2022/04/16 10:39:24;;;;;;;;;;;20.10;56.40;;;;;;5033041;28;1290;-69
2022/04/16 10:41:54;;;;;;;;;;;20.00;56.30;;;;;;5032848;28;800;-69
2022/04/16 10:44:20;;;;;;;;;;;20.00;56.30;;;;;;5032957;28;812;-70
2022/04/16 10:46:49;;;;;;;;;;;20.00;56.30;;;;;;5014764;28;991;-66
2022/04/16 10:49:15;;;;;;;;;;;20.10;56.30;;;;;;5028897;28;2141;-67
2022/04/16 10:51:40;;;;;;;;;;;20.00;56.90;;;;;;5032548;28;1171;-68
2022/04/16 10:54:06;;;;;;;;;;;20.00;56.30;;;;;;5022978;28;1960;-68
2022/04/16 10:56:32;;;;;;;;;;;20.00;56.30;;;;;;5030949;28;1031;-68
2022/04/16 10:59:00;;;;;;;;;;;20.00;56.40;;;;;;5031693;28;1294;-68
2022/04/16 11:01:26;;;;;;;;;;;20.00;56.40;;;;;;5032599;28;1018;-68
2022/04/16 11:03:53;;;;;;;;;;;20.00;56.40;;;;;;5032707;28;815;-68
2022/04/16 11:06:19;;;;;;;;;;;20.00;56.50;;;;;;5032422;28;728;-67
2022/04/16 11:08:45;;;;;;;;;;;20.00;56.50;;;;;;5032712;28;1197;-68
2022/04/16 11:11:11;;;;;;;;;;;19.90;56.50;;;;;;5015224;28;828;-68
2022/04/16 11:13:40;;;;;;;;;;;19.90;56.60;;;;;;5034858;28;1955;-68
2022/04/16 11:16:06;;;;;;;;;;;19.90;56.60;;;;;;5018439;28;788;-69
2022/04/16 11:18:44;;;;;;;;;;;19.90;56.70;;;;;;5036487;28;1060;-68
2022/04/16 11:21:29;;;;;;;;;;;19.90;56.70;;;;;;5036843;28;835;-66
2022/04/16 11:23:54;;;;;;;;;;;19.90;56.80;;;;;;5036488;28;796;-67
2022/04/16 11:34:40;;;;;;;;;;;19.80;57.00;;;;;;5036123;28;665;-67
2022/04/16 11:37:06;;;;;;;;;;;19.80;57.00;;;;;;5035795;28;1020;-66
2022/04/16 11:39:32;;;;;;;;;;;19.70;57.00;;;;;;5036093;28;1282;-66
2022/04/16 11:41:58;;;;;;;;;;;19.70;57.10;;;;;;5036314;28;847;-67
2022/04/16 11:44:40;;;;;;;;;;;19.70;57.10;;;;;;5018584;28;824;-67
2022/04/16 11:47:25;;;;;;;;;;;19.70;57.10;;;;;;5035597;28;831;-66
2022/04/16 11:49:51;;;;;;;;;;;19.70;57.20;;;;;;5035936;28;1239;-68
2022/04/16 11:52:21;;;;;;;;;;;19.70;57.20;;;;;;5035788;28;1898;-68
2022/04/16 11:54:47;;;;;;;;;;;19.60;57.20;;;;;;5035944;28;1006;-67
2022/04/16 11:57:19;;;;;;;;;;;19.60;57.20;;;;;;5018245;28;716;-67
2022/04/16 11:59:44;;;;;;;;;;;19.60;57.30;;;;;;5035510;28;1194;-66
2022/04/16 12:02:10;;;;;;;;;;;19.60;57.30;;;;;;5017925;28;1420;-67
2022/04/16 12:04:39;;;;;;;;;;;19.60;57.40;;;;;;5035597;28;1081;-66
2022/04/16 12:07:11;;;;;;;;;;;19.60;57.40;;;;;;5035383;28;863;-67
2022/04/16 12:09:37;;;;;;;;;;;19.60;57.40;;;;;;5036040;28;1205;-67
2022/04/16 12:12:05;;;;;;;;;;;19.50;57.50;;;;;;5017748;28;1898;-67
2022/04/16 12:14:30;;;;;;;;;;;19.50;57.50;;;;;;5018012;28;796;-66
2022/04/16 12:16:57;;;;;;;;;;;19.50;57.50;;;;;;5035344;28;879;-67
2022/04/16 12:19:22;;;;;;;;;;;19.50;57.60;;;;;;5017741;28;1299;-67
2022/04/16 12:21:47;;;;;;;;;;;19.50;57.60;;;;;;5035397;28;892;-67
2022/04/16 12:24:13;;;;;;;;;;;19.50;57.60;;;;;;5034886;28;891;-67
2022/04/16 12:26:47;;;;;;;;;;;19.50;57.70;;;;;;5034824;28;1194;-67
2022/04/16 12:29:12;;;;;;;;;;;19.50;57.70;;;;;;5034949;28;1367;-67
2022/04/16 12:31:37;;;;;;;;;;;19.40;57.70;;;;;;5017400;28;781;-67
2022/04/16 12:34:03;;;;;;;;;;;19.50;57.80;;;;;;5035049;28;1968;-67
2022/04/16 12:36:28;;;;;;;;;;;19.50;57.80;;;;;;5017738;28;1230;-68
2022/04/16 12:38:54;;;;;;;;;;;19.40;57.80;;;;;;5033859;28;1306;-67
2022/04/16 12:41:22;;;;;;;;;;;19.40;57.90;;;;;;5034957;28;820;-66
2022/04/16 12:43:48;;;;;;;;;;;19.40;57.90;;;;;;5033818;28;887;-66
2022/04/16 12:46:13;;;;;;;;;;;19.40;57.90;;;;;;5034776;28;784;-66
2022/04/16 12:48:39;;;;;;;;;;;19.40;58.00;;;;;;5035183;28;819;-67
2022/04/16 12:51:05;;;;;;;;;;;19.40;58.00;;;;;;5034802;28;1213;-66
2022/04/16 12:53:30;;;;;;;;;;;19.40;58.00;;;;;;5033087;28;2189;-67
2022/04/16 12:55:56;;;;;;;;;;;19.30;58.00;;;;;;5034328;28;1109;-67
2022/04/16 12:58:21;;;;;;;;;;;19.30;58.10;;;;;;5034621;28;1064;-68
2022/04/16 13:00:47;;;;;;;;;;;19.30;58.10;;;;;;5034450;28;1302;-67
2022/04/16 13:03:13;;;;;;;;;;;19.30;58.10;;;;;;5034477;28;998;-67
2022/04/16 13:05:38;;;;;;;;;;;19.30;58.10;;;;;;5034441;28;833;-67
2022/04/16 13:08:04;;;;;;;;;;;19.30;58.20;;;;;;5034405;28;970;-68
2022/04/16 13:10:29;;;;;;;;;;;19.20;58.20;;;;;;5032274;28;1370;-67
2022/04/16 13:12:55;;;;;;;;;;;19.30;58.30;;;;;;5024733;28;1906;-67
2022/04/16 13:15:20;;;;;;;;;;;19.30;58.30;;;;;;5003118;28;797;-68
2022/04/16 13:17:45;;;;;;;;;;;19.30;58.30;;;;;;5033563;28;819;-67
2022/04/16 13:20:12;;;;;;;;;;;19.20;58.30;;;;;;5033696;28;1275;-67
2022/04/16 13:22:38;;;;;;;;;;;19.20;58.30;;;;;;5033533;28;859;-67
2022/04/16 13:25:03;;;;;;;;;;;19.20;58.40;;;;;;5015603;28;1108;-67
2022/04/16 13:27:29;;;;;;;;;;;19.20;58.40;;;;;;5031782;28;1259;-67
2022/04/16 13:29:54;;;;;;;;;;;19.20;58.40;;;;;;5033240;28;1286;-68
2022/04/16 13:32:20;;;;;;;;;;;19.20;58.40;;;;;;5033394;28;1961;-67
2022/04/16 13:34:46;;;;;;;;;;;19.20;58.50;;;;;;5015565;28;820;-67
2022/04/16 13:37:12;;;;;;;;;;;19.20;58.50;;;;;;5032316;28;1171;-67
2022/04/16 13:42:22;;;;;;;;;;;19.10;58.50;;;;;;5033183;28;646;-67
2022/04/16 13:44:48;;;;;;;;;;;19.10;58.50;;;;;;5033075;28;891;-67
2022/04/16 13:47:13;;;;;;;;;;;19.10;58.50;;;;;;5032910;28;1076;-68
2022/04/16 13:49:38;;;;;;;;;;;19.10;58.60;;;;;;5031393;28;2162;-68
2022/04/16 13:52:04;;;;;;;;;;;19.10;58.60;;;;;;5032628;28;1894;-68
2022/04/16 13:54:30;;;;;;;;;;;19.10;58.60;;;;;;5032719;28;1166;-69
2022/04/16 13:56:56;;;;;;;;;;;19.10;58.60;;;;;;5032481;28;937;-67
2022/04/16 13:59:21;;;;;;;;;;;19.10;58.70;;;;;;5049856;22;2071;-67
2022/04/16 14:01:50;;;;;;;;;;;19.10;58.70;;;;;;5041575;28;1581;-68
2022/04/16 14:04:15;;;;;;;;;;;19.10;58.70;;;;;;5015207;28;1320;-68
2022/04/16 14:06:41;;;;;;;;;;;19.10;58.80;;;;;;5032527;28;1009;-68
2022/04/16 14:09:06;;;;;;;;;;;19.10;58.70;;;;;;5032639;28;911;-68
2022/04/16 14:11:34;;;;;;;;;;;19.00;58.70;;;;;;5032579;28;1574;-68
2022/04/16 14:13:59;;;;;;;;;;;19.00;58.70;;;;;;5032884;28;1914;-68
2022/04/16 14:16:24;;;;;;;;;;;19.00;58.80;;;;;;5032284;28;930;-68
2022/04/16 14:18:50;;;;;;;;;;;19.00;58.80;;;;;;5032625;28;795;-68
2022/04/16 14:21:15;;;;;;;;;;;19.00;58.80;;;;;;5032333;28;1292;-68
2022/04/16 14:23:41;;;;;;;;;;;19.00;58.80;;;;;;5015966;28;883;-68
2022/04/16 14:26:07;;;;;;;;;;;19.00;58.90;;;;;;5042651;28;1104;-68
2022/04/16 14:28:32;;;;;;;;;;;19.00;58.90;;;;;;5052164;28;1131;-69
2022/04/16 14:30:58;;;;;;;;;;;19.00;58.90;;;;;;5052228;28;1191;-68
2022/04/16 14:33:23;;;;;;;;;;;19.00;58.90;;;;;;5034447;28;1901;-68
2022/04/16 14:35:49;;;;;;;;;;;19.00;58.90;;;;;;5052763;28;806;-68
2022/04/16 14:38:16;;;;;;;;;;;19.00;58.90;;;;;;5034924;28;1341;-68
2022/04/16 14:40:42;;;;;;;;;;;18.90;58.90;;;;;;5052669;28;1282;-68
2022/04/16 14:43:07;;;;;;;;;;;18.90;58.90;;;;;;5052814;28;926;-68
2022/04/16 14:45:50;;;;;;;;;;;18.90;58.90;;;;;;5052569;28;867;-68
2022/04/16 14:48:16;;;;;;;;;;;18.90;59.00;;;;;;5056161;28;807;-68
2022/04/16 14:50:41;;;;;;;;;;;18.90;59.00;;;;;;5056879;28;1201;-68
2022/04/16 14:53:07;;;;;;;;;;;18.90;59.00;;;;;;5056802;28;1906;-68
2022/04/16 14:55:36;;;;;;;;;;;18.90;59.00;;;;;;5056764;28;882;-68